Time;durP1;ratioP1;P1;durP2;ratioP2;P2;SDS_P1;SDS_P2;PMS_P1;PMS_P2;Temp;Humidity;BMP_temperature;BMP_pressure;BME280_temperature;BME280_humidity;BME280_pressure;Samples;Min_cycle;Max_cycle;Signal;HPM_P1;HPM_P2
2022/05/07 00:00:38;;;;;;;4.72;2.10;;;;;;;;;;4986285;28;20042;-80
2022/05/07 00:03:04;;;;;;;1.85;1.63;;;;;;;;;;4986628;28;20042;-80
2022/05/07 00:05:31;;;;;;;2.55;1.67;;;;;;;;;;4984995;28;20029;-81
2022/05/07 00:07:57;;;;;;;2.80;1.95;;;;;;;;;;4985939;28;20225;-81
2022/05/07 00:10:23;;;;;;;3.33;1.45;;;;;;;;;;4987099;28;20061;-80
2022/05/07 00:12:49;;;;;;;1.60;1.50;;;;;;;;;;4986263;28;20217;-80
2022/05/07 00:15:15;;;;;;;2.15;1.42;;;;;;;;;;4982284;28;20030;-81
2022/05/07 00:20:25;;;;;;;2.50;1.52;;;12.50;95.80;;;;;;4987815;28;20053;-80
2022/05/07 00:22:51;;;;;;;7.15;1.55;;;;;;;;;;4985288;28;20034;-80
2022/05/07 00:25:17;;;;;;;2.70;1.55;;;;;;;;;;4983587;28;20026;-81
2022/05/07 00:27:43;;;;;;;2.70;1.50;;;;;;;;;;4984445;28;20541;-80
2022/05/07 00:30:09;;;;;;;2.08;1.73;;;;;;;;;;4985789;28;20034;-80
2022/05/07 00:32:35;;;;;;;1.88;1.52;;;;;;;;;;4987929;28;20026;-80
2022/05/07 00:35:01;;;;;;;2.53;1.75;;;;;;;;;;4984686;28;20419;-80
2022/05/07 00:37:27;;;;;;;3.05;1.52;;;;;;;;;;4982078;28;20081;-80
2022/05/07 00:39:53;;;;;;;3.30;3.00;;;;;;;;;;4987061;28;20022;-80
2022/05/07 00:42:22;;;;;;;4.25;1.80;;;;;;;;;;4985061;28;20046;-80
2022/05/07 00:44:48;;;;;;;2.17;1.73;;;;;;;;;;4984709;28;20038;-80
2022/05/07 00:47:14;;;;;;;2.35;2.13;;;;;;;;;;4986347;28;20683;-80
2022/05/07 00:49:44;;;;;;;3.35;2.05;;;;;;;;;;4985030;28;20069;-79
2022/05/07 00:52:10;;;;;;;2.90;2.17;;;;;;;;;;4984640;28;20105;-80
2022/05/07 00:54:37;;;;;;;2.85;1.90;;;12.50;90.70;;;;;;4984437;28;20539;-80
2022/05/07 00:57:03;;;;;;;2.53;1.67;;;;;;;;;;4983954;28;20547;-80
2022/05/07 00:59:29;;;;;;;2.70;1.92;;;;;;;;;;4987303;28;20037;-80
2022/05/07 01:01:55;;;;;;;3.75;1.42;;;;;;;;;;4986040;28;20514;-80
2022/05/07 01:04:21;;;;;;;1.77;1.45;;;;;;;;;;4983619;28;20030;-81
2022/05/07 01:06:47;;;;;;;1.77;1.40;;;;;;;;;;4984070;28;20050;-81
2022/05/07 01:09:13;;;;;;;2.40;1.55;;;;;;;;;;4984531;28;20065;-81
2022/05/07 01:11:41;;;;;;;3.38;1.85;;;;;;;;;;4987447;28;20479;-81
2022/05/07 01:14:07;;;;;;;2.10;1.58;;;;;;;;;;4984430;28;20057;-81
2022/05/07 01:16:33;;;;;;;2.30;1.80;;;;;;;;;;4983725;28;20165;-80
2022/05/07 01:19:00;;;;;;;2.47;1.70;;;;;;;;;;4985458;28;20484;-80
2022/05/07 01:21:27;;;;;;;2.67;2.08;;;;;;;;;;4985703;28;20563;-81
2022/05/07 01:23:53;;;;;;;5.22;1.90;;;;;;;;;;4984874;28;20077;-80
2022/05/07 01:26:23;;;;;;;4.10;2.20;;;;;;;;;;4983963;28;20137;-80
2022/05/07 01:28:49;;;;;;;2.55;2.10;;;;;;;;;;4988636;28;20050;-80
2022/05/07 01:31:16;;;;;;;3.38;2.70;;;;;;;;;;4987412;28;20022;-80
2022/05/07 01:33:42;;;;;;;5.50;2.70;;;;;;;;;;4988274;28;20022;-79
2022/05/07 01:36:11;;;;;;;5.22;2.53;;;;;;;;;;4987662;28;20387;-80
2022/05/07 01:38:37;;;;;;;3.20;1.40;;;11.70;91.90;;;;;;5004890;28;20034;-81
2022/05/07 01:41:03;;;;;;;3.47;1.73;;;;;;;;;;4988547;28;20088;-81
2022/05/07 01:43:32;;;;;;;6.03;2.25;;;;;;;;;;4987379;28;20053;-81
2022/05/07 01:46:01;;;;;;;2.63;2.42;;;11.40;92.50;;;;;;4987142;28;20472;-80
2022/05/07 01:48:28;;;;;;;3.30;1.90;;;;;;;;;;4989465;28;20045;-80
2022/05/07 01:50:54;;;;;;;3.90;1.98;;;;;;;;;;4989674;28;20026;-79
2022/05/07 01:53:22;;;;;;;3.95;2.08;;;;;;;;;;5005025;28;20030;-80
2022/05/07 01:55:48;;;;;;;;;;;;;;;;;;4985708;28;20034;-80
2022/05/07 01:58:14;;;;;;;2.90;2.22;;;;;;;;;;4988492;28;20397;-80
2022/05/07 02:00:40;;;;;;;2.55;2.20;;;;;;;;;;4987667;28;20530;-81
2022/05/07 02:03:07;;;;;;;6.90;1.95;;;;;;;;;;4989553;28;20046;-81
2022/05/07 02:05:33;;;;;;;3.22;2.08;;;;;;;;;;4986025;28;20026;-81
2022/05/07 02:07:59;;;;;;;3.90;2.03;;;;;;;;;;4987421;28;20089;-80
2022/05/07 02:10:25;;;;;;;2.70;1.85;;;;;;;;;;4989242;28;20045;-80
2022/05/07 02:12:52;;;;;;;4.03;2.10;;;;;;;;;;4986580;28;20031;-81
2022/05/07 02:15:18;;;;;;;2.40;1.50;;;;;;;;;;4986167;28;20045;-80
2022/05/07 02:17:44;;;;;;;2.50;2.10;;;;;;;;;;4988678;28;20427;-81
2022/05/07 02:20:11;;;;;;;3.97;2.40;;;;;;;;;;4987748;28;20436;-81
2022/05/07 02:22:37;;;;;;;4.55;2.55;;;;;;;;;;4986788;28;20042;-81
2022/05/07 02:25:04;;;;;;;2.08;1.83;;;;;;;;;;4987255;28;20130;-80
2022/05/07 02:27:30;;;;;;;3.40;2.87;;;;;;;;;;4986096;28;20309;-80
2022/05/07 02:29:56;;;;;;;3.97;2.53;;;;;;;;;;4988316;28;20649;-80
2022/05/07 02:32:22;;;;;;;4.65;2.53;;;;;;;;;;4988550;28;20026;-80
2022/05/07 02:34:48;;;;;;;3.35;2.03;;;;;;;;;;4984472;28;20030;-81
2022/05/07 02:37:14;;;;;;;4.65;2.45;;;;;;;;;;4986019;28;20027;-80
2022/05/07 02:39:40;;;;;;;4.35;1.95;;;;;;;;;;4987414;28;20046;-80
2022/05/07 02:44:51;;;;;;;3.75;2.70;;;;;;;;;;4985600;28;20041;-80
2022/05/07 02:47:17;;;;;;;3.17;2.70;;;;;;;;;;4987131;28;20031;-81
2022/05/07 02:49:43;;;;;;;9.00;4.32;;;;;;;;;;4988384;28;20030;-79
2022/05/07 02:52:09;;;;;;;3.58;2.42;;;;;;;;;;4986635;28;20078;-80
2022/05/07 02:54:35;;;;;;;3.45;2.45;;;;;;;;;;4985462;28;20026;-80
2022/05/07 02:57:01;;;;;;;6.07;2.65;;;;;;;;;;4985224;28;20065;-82
2022/05/07 02:59:27;;;;;;;6.80;3.28;;;;;;;;;;4988967;28;20026;-80
2022/05/07 03:01:53;;;;;;;4.15;2.45;;;;;;;;;;4986848;28;20038;-80
2022/05/07 03:04:20;;;;;;;5.68;2.35;;;;;;;;;;4985767;28;20554;-80
2022/05/07 03:06:46;;;;;;;2.88;2.42;;;;;;;;;;4984714;28;20053;-80
2022/05/07 03:09:12;;;;;;;4.95;2.28;;;;;;;;;;4987597;28;20076;-79
2022/05/07 03:11:38;;;;;;;5.30;2.75;;;;;;;;;;4988281;28;20030;-80
2022/05/07 03:14:05;;;;;;;2.53;1.88;;;;;;;;;;4983687;28;20034;-80
2022/05/07 03:16:31;;;;;;;3.45;2.05;;;;;;;;;;4984877;28;20034;-81
2022/05/07 03:18:58;;;;;;;4.35;2.65;;;;;;;;;;4986562;28;20614;-80
2022/05/07 03:21:23;;;;;;;3.45;2.63;;;;;;;;;;4985173;28;20030;-80
2022/05/07 03:23:50;;;;;;;2.97;2.35;;;;;;;;;;4985520;28;20050;-80
2022/05/07 03:26:17;;;;;;;4.32;2.90;;;;;;;;;;4986584;28;20027;-81
2022/05/07 03:28:43;;;;;;;4.97;3.00;;;;;;;;;;4986451;28;20096;-81
2022/05/07 03:31:09;;;;;;;4.68;2.38;;;;;;;;;;4985708;28;20038;-80
2022/05/07 03:33:35;;;;;;;3.83;2.40;;;;;;;;;;4984813;28;20034;-81
2022/05/07 03:36:01;;;;;;;3.10;1.92;;;;;;;;;;4983132;28;20035;-80
2022/05/07 03:38:27;;;;;;;4.53;2.40;;;;;;;;;;4989222;28;20026;-80
2022/05/07 03:40:53;;;;;;;4.95;1.98;;;;;;;;;;4985799;28;20432;-80
2022/05/07 03:43:19;;;;;;;3.75;2.35;;;;;;;;;;4986887;28;20053;-80
2022/05/07 03:45:45;;;;;;;4.38;2.85;;;;;;;;;;4982264;28;20022;-80
2022/05/07 03:48:11;;;;;;;3.78;2.80;;;;;;;;;;4987777;28;20032;-80
2022/05/07 03:50:37;;;;;;;3.90;2.22;;;;;;;;;;4987283;28;20025;-80
2022/05/07 03:55:48;;;;;;;5.00;2.30;;;;;;;;;;4983566;28;20541;-80
2022/05/07 03:58:15;;;;;;;3.47;2.08;;;;;;;;;;4985333;28;20066;-81
2022/05/07 04:00:45;;;;;;;3.35;3.05;;;;;;;;;;4985731;28;20034;-80
2022/05/07 04:03:12;;;;;;;5.40;2.22;;;;;;;;;;4986456;28;20066;-81
2022/05/07 04:05:38;;;;;;;4.03;2.57;;;;;;;;;;4984914;28;20032;-80
2022/05/07 04:08:04;;;;;;;4.78;3.03;;;;;;;;;;4986645;28;20036;-80
2022/05/07 04:10:30;;;;;;;5.82;3.38;;;;;;;;;;4986949;28;20022;-81
2022/05/07 04:12:56;;;;;;;4.68;3.47;;;;;;;;;;4986520;28;20431;-81
2022/05/07 04:15:22;;;;;;;7.53;4.35;;;;;;;;;;4983331;28;20036;-80
2022/05/07 04:17:49;;;;;;;3.00;2.25;;;;;;;;;;4986631;28;20058;-80
2022/05/07 04:20:15;;;;;;;4.30;2.73;;;;;;;;;;4987013;28;20038;-80
2022/05/07 04:22:41;;;;;;;3.75;2.63;;;;;;;;;;4982901;28;20074;-80
2022/05/07 04:25:08;;;;;;;6.47;3.05;;;;;;;;;;4982674;28;20081;-81
2022/05/07 04:27:34;;;;;;;5.13;2.38;;;;;;;;;;4984652;28;20023;-82
2022/05/07 04:30:00;;;;;;;5.80;3.17;;;;;;;;;;4985428;28;20455;-81
2022/05/07 04:32:27;;;;;;;4.35;3.65;;;;;;;;;;5000088;28;20125;-81
2022/05/07 04:34:53;;;;;;;6.10;2.65;;;;;;;;;;4983392;28;20030;-80
2022/05/07 04:37:19;;;;;;;5.22;3.33;;;;;;;;;;4984528;28;20049;-80
2022/05/07 04:39:47;;;;;;;6.85;4.60;;;;;;;;;;4986334;28;20023;-80
2022/05/07 04:42:13;;;;;;;7.22;3.17;;;;;;;;;;4984200;28;20051;-81
2022/05/07 04:44:39;;;;;;;5.68;3.30;;;;;;;;;;4983260;28;20023;-80
2022/05/07 04:47:05;;;;;;;2.42;2.22;;;;;;;;;;4984832;28;20030;-80
2022/05/07 04:49:31;;;;;;;4.50;2.35;;;;;;;;;;4985875;28;20112;-80
2022/05/07 04:51:57;;;;;;;6.32;3.00;;;;;;;;;;4985031;28;20898;-80
2022/05/07 04:54:24;;;;;;;4.18;2.63;;;;;;;;;;4984786;28;21465;-80
2022/05/07 04:56:50;;;;;;;4.72;2.78;;;;;;;;;;4983602;28;20029;-81
2022/05/07 04:59:17;;;;;;;3.33;2.40;;;;;;;;;;4988231;28;20395;-81
2022/05/07 05:01:43;;;;;;;4.85;2.60;;;;;;;;;;4986786;28;20046;-81
2022/05/07 05:04:09;;;;;;;4.53;3.45;;;;;;;;;;4989102;28;20060;-79
2022/05/07 05:06:36;;;;;;;4.75;3.30;;;;;;;;;;4987845;28;20058;-80
2022/05/07 05:09:02;;;;;;;7.32;3.58;;;;;;;;;;4990246;28;20034;-81
2022/05/07 05:11:28;;;;;;;4.63;3.35;;;;;;;;;;4991353;28;20632;-81
2022/05/07 05:13:54;;;;;;;5.03;3.10;;;;;;;;;;4986262;28;20030;-80
2022/05/07 05:16:20;;;;;;;9.25;4.00;;;;;;;;;;4983911;28;20034;-81
2022/05/07 05:18:46;;;;;;;6.30;3.17;;;;;;;;;;4989913;28;20321;-81
2022/05/07 05:21:12;;;;;;;5.63;3.60;;;;;;;;;;4985738;28;20026;-80
2022/05/07 05:23:38;;;;;;;5.22;3.80;;;;;;;;;;4988793;28;20053;-81
2022/05/07 05:26:04;;;;;;;3.88;2.55;;;;;;;;;;4987927;28;20473;-80
2022/05/07 05:28:30;;;;;;;7.28;3.03;;;;;;;;;;4986907;28;20089;-81
2022/05/07 05:30:56;;;;;;;6.05;3.08;;;;;;;;;;4988792;28;20034;-80
2022/05/07 05:33:22;;;;;;;8.13;3.47;;;;;;;;;;4987779;28;20041;-80
2022/05/07 05:35:49;;;;;;;5.78;2.78;;;;;;;;;;4987554;28;20022;-81
2022/05/07 05:38:15;;;;;;;6.20;4.03;;;;;;;;;;4993000;28;20022;-81
2022/05/07 05:40:42;;;;;;;6.35;3.67;;;;;;;;;;4994648;28;20026;-80
2022/05/07 05:43:08;;;;;;;5.25;3.65;;;;;;;;;;4992915;28;20130;-80
2022/05/07 05:45:34;;;;;;;4.53;3.10;;;;;;;;;;4985053;28;20645;-81
2022/05/07 05:48:04;;;;;;;4.18;3.17;;;;;;;;;;4992580;28;20026;-81
2022/05/07 05:50:30;;;;;;;8.07;4.53;;;;;;;;;;4992949;28;20018;-80
2022/05/07 05:52:56;;;;;;;4.00;2.65;;;;;;;;;;4994023;28;20088;-80
2022/05/07 05:55:22;;;;;;;6.85;3.17;;;;;;;;;;4992149;28;20025;-80
2022/05/07 05:57:49;;;;;;;5.18;3.67;;;;;;;;;;4991116;28;20054;-81
2022/05/07 06:00:15;;;;;;;6.15;3.38;;;;;;;;;;4995688;28;20026;-80
2022/05/07 06:02:45;;;;;;;4.68;3.55;;;;;;;;;;4999719;28;20088;-80
2022/05/07 06:05:16;;;;;;;5.65;3.78;;;;;;;;;;4993811;28;20459;-81
2022/05/07 06:07:42;;;;;;;6.60;3.70;;;;;;;;;;4989313;28;20037;-81
2022/05/07 06:10:08;;;;;;;5.78;3.65;;;;;;;;;;4997526;28;20110;-80
2022/05/07 06:12:34;;;;;;;5.45;3.30;;;;;;;;;;4993686;28;20034;-80
2022/05/07 06:15:00;;;;;;;5.40;3.97;;;;;;;;;;4987635;28;20038;-80
2022/05/07 06:17:27;;;;;;;5.07;3.58;;;;;;;;;;4994910;28;20030;-80
2022/05/07 06:19:53;;;;;;;6.65;4.47;;;;;;;;;;4993112;28;20058;-81
2022/05/07 06:22:19;;;;;;;5.13;3.05;;;;;;;;;;4993338;28;20038;-80
2022/05/07 06:27:33;;;;;;;7.03;3.83;;;;;;;;;;4987761;28;20104;-80
2022/05/07 06:29:59;;;;;;;5.40;4.32;;;;;;;;;;4990603;28;20510;-80
2022/05/07 06:32:35;;;;;;;5.50;3.33;;;;;;;;;;4995601;28;20045;-80
2022/05/07 06:35:05;;;;;;;5.75;4.00;;;;;;;;;;4986793;28;20636;-81
2022/05/07 06:37:31;;;;;;;8.27;3.38;;;;;;;;;;4987361;28;20040;-80
2022/05/07 06:39:57;;;;;;;7.07;4.60;;;;;;;;;;4994279;28;20176;-80
2022/05/07 06:42:23;;;;;;;7.53;4.38;;;;;;;;;;4992139;28;20551;-80
2022/05/07 06:44:49;;;;;;;8.32;4.43;;;;;;;;;;4989421;28;20402;-80
2022/05/07 06:47:16;;;;;;;6.97;4.50;;;;;;;;;;4988324;28;20027;-80
2022/05/07 06:49:43;;;;;;;5.53;3.35;;;;;;;;;;4995295;28;20031;-80
2022/05/07 06:52:09;;;;;;;5.57;2.88;;;14.50;91.50;;;;;;4991978;28;20027;-81
2022/05/07 06:54:35;;;;;;;4.22;3.40;;;;;;;;;;4989220;28;20030;-81
2022/05/07 06:57:03;;;;;;;5.93;3.40;;;;;;;;;;4989430;28;20029;-82
2022/05/07 06:59:29;;;;;;;5.82;3.05;;;;;;;;;;4994910;28;20061;-81
2022/05/07 07:01:55;;;;;;;5.95;3.00;;;;;;;;;;4996228;28;20037;-80
2022/05/07 07:04:21;;;;;;;5.23;2.90;;;;;;;;;;4998421;28;20045;-80
2022/05/07 07:06:49;;;;;;;4.70;3.35;;;;;;;;;;5012511;28;20284;-80
2022/05/07 07:09:15;;;;;;;8.10;3.75;;;;;;;;;;4999506;28;20037;-81
2022/05/07 07:11:41;;;;;;;7.10;3.25;;;;;;;;;;5001785;28;20022;-81
2022/05/07 07:14:07;;;;;;;9.82;3.15;;;;;;;;;;4997359;28;20053;-81
2022/05/07 07:16:33;;;;;;;4.85;3.25;;;;;;;;;;4998646;28;21325;-81
2022/05/07 07:18:59;;;;;;;5.55;2.47;;;;;;;;;;4994521;28;20026;-80
2022/05/07 07:21:25;;;;;;;5.13;3.15;;;;;;;;;;4997207;28;20054;-81
2022/05/07 07:23:51;;;;;;;6.10;2.53;;;;;;;;;;4997280;28;20487;-81
2022/05/07 07:26:17;;;;;;;6.30;2.92;;;;;;;;;;4985096;28;20037;-80
2022/05/07 07:28:43;;;;;;;3.40;1.83;;;;;;;;;;4997218;28;20030;-82
2022/05/07 07:31:10;;;;;;;7.85;3.58;;;;;;;;;;4993178;28;20039;-82
2022/05/07 07:33:37;;;;;;;5.90;2.80;;;;;;;;;;4988970;28;20383;-81
2022/05/07 07:36:04;;;;;;;3.88;3.05;;;;;;;;;;4980170;28;20113;-80
2022/05/07 07:38:29;;;;;;;3.10;1.80;;;27.90;62.60;;;;;;4996994;28;20022;-81
2022/05/07 07:40:55;;;;;;;3.77;2.63;;;;;;;;;;4980844;28;20066;-81
2022/05/07 07:43:21;;;;;;;3.67;2.10;;;;;;;;;;4975907;28;20101;-81
2022/05/07 07:48:32;;;;;;;9.30;2.17;;;;;;;;;;4985576;28;20108;-81
2022/05/07 07:50:58;;;;;;;3.43;2.03;;;;;;;;;;4974519;28;20031;-81
2022/05/07 07:53:24;;;;;;;3.13;1.75;;;;;;;;;;4971418;28;20041;-81
2022/05/07 07:55:51;;;;;;;6.10;1.70;;;;;;;;;;4973764;28;20038;-82
2022/05/07 07:58:17;;;;;;;3.20;1.50;;;;;;;;;;4972947;28;20805;-81
2022/05/07 08:00:46;;;;;;;1.92;1.10;;;;;;;;;;4976030;28;20105;-80
2022/05/07 08:03:14;;;;;;;2.92;1.60;;;;;;;;;;4996803;28;20042;-80
2022/05/07 08:05:40;;;;;;;3.15;1.67;;;;;;;;;;4995747;28;20128;-82
2022/05/07 08:13:38;;;;;;;6.32;1.73;;;28.30;41.70;;;;;;4997939;28;20462;-81
2022/05/07 08:16:07;;;;;;;6.18;1.45;;;28.50;53.00;;;;;;4996218;28;20046;-81
2022/05/07 08:18:33;;;;;;;2.55;1.20;;;;;;;;;;4997884;28;20040;-81
2022/05/07 08:20:59;;;;;;;4.20;1.75;;;;;;;;;;4995990;28;20029;-82
2022/05/07 08:23:26;;;;;;;4.05;1.27;;;;;;;;;;4999906;28;20038;-81
2022/05/07 08:25:53;;;;;;;2.38;1.55;;;;;;;;;;4998042;28;20026;-81
2022/05/07 08:28:19;;;;;;;1.83;1.50;;;;;;;;;;4999035;28;20061;-81
2022/05/07 08:30:45;;;;;;;6.95;2.00;;;;;;;;;;4995939;28;20274;-82
2022/05/07 08:33:11;;;;;;;7.10;1.52;;;30.50;35.60;;;;;;4971111;28;20044;-82
2022/05/07 08:35:38;;;;;;;2.55;1.30;;;;;;;;;;4975091;28;20519;-82
2022/05/07 08:38:04;;;;;;;1.80;0.68;;;;;;;;;;4978323;28;20085;-81
2022/05/07 08:40:30;;;;;;;1.33;0.75;;;31.60;34.40;;;;;;4976689;28;20031;-82
2022/05/07 08:42:57;;;;;;;2.13;0.53;;;31.30;33.70;;;;;;4980955;28;20077;-81
2022/05/07 08:45:23;;;;;;;1.67;0.85;;;;;;;;;;4995176;28;20141;-81
2022/05/07 08:47:53;;;;;;;2.28;0.70;;;;;;;;;;4999228;28;20032;-80
2022/05/07 08:50:20;;;;;;;2.40;1.02;;;30.80;34.40;;;;;;4995367;28;20022;-82
2022/05/07 08:52:46;;;;;;;10.52;0.98;;;;;;;;;;4996979;28;20705;-81
2022/05/07 08:55:13;;;;;;;1.25;0.80;;;;;;;;;;4997389;28;20105;-82
2022/05/07 08:57:39;;;;;;;;;;;31.00;33.60;;;;;;4993781;28;20030;-81
2022/05/07 09:00:06;;;;;;;2.10;0.80;;;30.90;33.60;;;;;;4998861;28;19925;-81
2022/05/07 09:02:41;;;;;;;6.25;1.42;;;31.10;36.40;;;;;;4998838;28;20061;-81
2022/05/07 09:05:08;;;;;;;4.43;1.05;;;;;;;;;;4997929;28;20049;-81
2022/05/07 09:07:34;;;;;;;2.47;1.25;;;;;;;;;;4992366;28;20038;-81
2022/05/07 09:10:00;;;;;;;3.80;0.90;;;;;;;;;;4984825;28;20089;-81
2022/05/07 09:12:29;;;;;;;3.10;0.82;;;31.50;34.80;;;;;;4985277;28;20057;-82
2022/05/07 09:15:04;;;;;;;1.75;0.90;;;31.90;33.00;;;;;;4995566;28;20403;-82
2022/05/07 09:17:30;;;;;;;5.05;2.15;;;;;;;;;;4995793;28;20104;-82
2022/05/07 09:19:56;;;;;;;1.65;0.85;;;;;;;;;;4981958;28;20026;-83
2022/05/07 09:22:23;;;;;;;2.47;0.95;;;;;;;;;;4983846;28;20460;-82
2022/05/07 09:24:58;;;;;;;3.88;1.38;;;31.30;31.70;;;;;;4990376;28;20045;-82
2022/05/07 09:27:24;;;;;;;2.22;0.80;;;;;;;;;;4981797;28;20093;-82
2022/05/07 09:30:04;;;;;;;3.08;1.80;;;31.30;32.40;;;;;;4968290;28;20595;-81
2022/05/07 09:32:38;;;;;;;17.27;1.13;;;31.20;35.00;;;;;;4989788;28;20050;-82
2022/05/07 09:38:01;;;;;;;8.65;1.50;;;;;;;;;;4985467;28;20455;-82
2022/05/07 09:40:28;;;;;;;2.47;1.27;;;31.70;42.30;;;;;;4982133;28;20034;-81
2022/05/07 09:42:57;;;;;;;1.58;0.82;;;31.70;32.00;;;;;;5000599;28;20046;-81
2022/05/07 09:45:27;;;;;;;3.03;0.60;;;;;;;;;;4974885;28;20518;-82
2022/05/07 09:47:54;;;;;;;1.25;0.52;;;;;;;;;;4977726;28;20037;-81
2022/05/07 09:50:23;;;;;;;5.50;0.80;;;31.50;33.40;;;;;;4988556;28;20034;-83
2022/05/07 09:58:19;;;;;;;3.50;0.60;;;;;;;;;;4980919;28;20050;-81
2022/05/07 10:01:24;;;;;;;1.40;0.68;;;30.50;32.50;;;;;;4988489;28;20023;-82
2022/05/07 10:04:27;;;;;;;2.75;1.05;;;29.80;33.70;;;;;;5005730;28;20041;-82
2022/05/07 10:06:59;;;;;;;3.08;2.13;;;;;;;;;;4995287;28;20014;-82
2022/05/07 10:09:41;;;;;;;1.95;0.75;;;;;;;;;;5009821;28;20077;-83
2022/05/07 10:12:08;;;;;;;2.55;0.95;;;;;;;;;;5004539;28;20026;-82
2022/05/07 10:14:33;;;;;;;1.45;0.70;;;;;;;;;;5007456;28;20128;-84
2022/05/07 10:17:00;;;;;;;2.03;0.85;;;;;;;;;;5005043;28;20157;-84
2022/05/07 10:19:35;;;;;;;4.57;0.87;;;31.60;31.90;;;;;;5004578;28;20068;-83
2022/05/07 10:22:02;;;;;;;7.93;1.67;;;;;;;;;;4984679;28;20033;-82
2022/05/07 10:24:28;;;;;;;6.18;1.58;;;;;;;;;;5006059;28;20307;-83
2022/05/07 10:26:54;;;;;;;3.10;1.00;;;;;;;;;;5006869;28;20077;-83
2022/05/07 10:29:30;;;;;;;2.47;1.40;;;;;;;;;;5006475;28;20650;-82
2022/05/07 10:32:03;;;;;;;7.10;1.40;;;;;;;;;;5005320;28;20727;-82
2022/05/07 10:34:29;;;;;;;1.95;0.93;;;;;;;;;;5007980;28;20042;-84
2022/05/07 10:37:05;;;;;;;4.97;0.73;;;32.50;32.50;;;;;;5007289;28;20049;-82
2022/05/07 10:39:31;;;;;;;3.60;0.68;;;;;;;;;;5004156;28;20526;-83
2022/05/07 10:41:57;;;;;;;1.45;0.70;;;;;;;;;;4990553;28;20105;-82
2022/05/07 10:44:33;;;;;;;3.15;0.52;;;32.70;32.40;;;;;;4991980;28;20038;-83
2022/05/07 10:47:13;;;;;;;1.75;0.90;;;32.50;32.40;;;;;;5000973;28;20049;-82
2022/05/07 10:50:06;;;;;;;4.20;0.98;;;32.40;31.30;;;;;;4984992;28;20065;-82
2022/05/07 10:52:34;;;;;;;2.80;1.10;;;32.40;32.30;;;;;;5001650;28;20836;-83
2022/05/07 10:55:07;;;;;;;1.27;0.60;;;;;;;;;;4984209;28;20031;-86
2022/05/07 10:57:44;;;;;;;2.90;0.90;;;31.50;33.60;;;;;;4988731;28;20031;-81
2022/05/07 11:00:20;;;;;;;1.15;0.68;;;;;;;;;;4984234;28;20495;-81
2022/05/07 11:02:47;;;;;;;1.95;0.75;;;;;;;;;;4986755;28;20109;-86
2022/05/07 11:05:13;;;;;;;1.73;0.90;;;;;;;;;;4977007;28;20034;-81
2022/05/07 11:07:40;;;;;;;1.42;1.05;;;;;;;;;;4981226;28;20113;-80
2022/05/07 11:10:07;;;;;;;4.05;1.35;;;;;;;;;;4984924;28;20038;-81
2022/05/07 11:12:35;;;;;;;5.25;1.23;;;;;;;;;;4973563;28;20249;-81
2022/05/07 11:15:01;;;;;;;3.95;1.30;;;;;;;;;;4986885;28;20034;-81
2022/05/07 11:17:35;;;;;;;6.93;1.27;;;;;;;;;;4977386;28;20062;-81
2022/05/07 11:20:01;;;;;;;6.57;1.48;;;;;;;;;;4982397;28;20034;-81
2022/05/07 11:22:30;;;;;;;2.67;1.08;;;;;;;;;;4988485;28;20026;-82
2022/05/07 11:25:05;;;;;;;1.67;0.60;;;;;;;;;;4987324;28;20038;-81
2022/05/07 11:27:34;;;;;;;2.85;1.20;;;;;;;;;;4986275;28;20109;-81
2022/05/07 11:30:01;;;;;;;2.67;0.90;;;;;;;;;;4987629;28;20037;-82
2022/05/07 11:32:41;;;;;;;0.93;0.60;;;;;;;;;;4987603;28;20029;-81
2022/05/07 11:35:08;;;;;;;3.10;1.27;;;;;;;;;;4981731;28;20641;-82
2022/05/07 11:37:43;;;;;;;4.97;1.43;;;;;;;;;;4984482;28;20035;-80
2022/05/07 11:40:10;;;;;;;2.00;0.88;;;;;;;;;;4985739;28;20109;-81
2022/05/07 11:42:46;;;;;;;2.33;0.90;;;;;;;;;;4973284;28;20623;-82
2022/05/07 11:45:25;;;;;;;2.43;1.60;;;;;;;;;;4988019;28;20110;-81
2022/05/07 11:47:58;;;;;;;1.27;0.82;;;23.80;41.40;;;;;;4985299;28;20258;-82
2022/05/07 11:50:24;;;;;;;1.17;0.98;;;;;;;;;;4976110;28;20082;-80
2022/05/07 11:52:51;;;;;;;4.35;1.55;;;;;;;;;;4978942;28;20030;-82
2022/05/07 11:55:23;;;;;;;2.28;1.27;;;;;;;;;;4973041;28;20579;-88
2022/05/07 11:57:49;;;;;;;1.52;0.73;;;;;;;;;;4980435;28;20117;-80
2022/05/07 12:00:21;;;;;;;1.48;0.88;;;23.60;42.50;;;;;;4988055;28;20034;-81
2022/05/07 12:02:50;;;;;;;3.70;0.90;;;;;;;;;;4988835;28;20046;-82
2022/05/07 12:05:17;;;;;;;3.40;1.15;;;;;;;;;;4984509;28;20058;-82
2022/05/07 12:07:45;;;;;;;2.50;1.10;;;;;;;;;;4981449;28;20057;-78
2022/05/07 12:10:11;;;;;;;1.40;1.00;;;;;;;;;;4974840;28;20068;-82
2022/05/07 12:12:37;;;;;;;1.17;0.85;;;;;;;;;;4988011;28;20066;-81
2022/05/07 12:15:03;;;;;;;5.15;2.22;;;;;;;;;;4972308;28;20026;-82
2022/05/07 12:20:14;;;;;;;19.15;2.85;;;;;;;;;;4984078;28;20058;-80
2022/05/07 12:30:54;;;;;;;4.88;2.55;;;;;;;;;;4988586;28;20084;-80
2022/05/07 12:33:20;;;;;;;10.35;1.83;;;;;;;;;;4972107;28;20030;-80
2022/05/07 12:35:46;;;;;;;5.57;1.80;;;;;;;;;;4974387;28;20037;-80
2022/05/07 12:38:12;;;;;;;7.70;2.40;;;;;;;;;;4976531;28;20142;-80
2022/05/07 12:40:38;;;;;;;3.65;1.27;;;22.80;45.40;;;;;;4976394;28;20105;-80
2022/05/07 12:43:04;;;;;;;8.32;2.17;;;;;;;;;;4973727;28;20501;-81
2022/05/07 12:45:30;;;;;;;3.78;1.30;;;;;;;;;;4986558;28;20034;-82
2022/05/07 12:47:56;;;;;;;2.97;1.75;;;;;;;;;;4984422;28;20034;-91
2022/05/07 12:50:22;;;;;;;1.08;0.90;;;;;;;;;;4975757;28;20035;-87
2022/05/07 12:52:48;;;;;;;1.13;0.80;;;;;;;;;;4984331;28;20030;-80
2022/05/07 12:55:14;;;;;;;2.05;0.80;;;;;;;;;;4983802;28;20085;-81
2022/05/07 12:57:40;;;;;;;3.75;1.98;;;;;;;;;;4975753;28;20026;-82
2022/05/07 13:00:07;;;;;;;8.32;1.70;;;;;;;;;;4971742;28;20019;-81
2022/05/07 13:02:33;;;;;;;2.63;1.20;;;;;;;;;;4974682;28;20034;-80
2022/05/07 13:04:59;;;;;;;2.20;0.73;;;;;;;;;;4976563;28;20042;-80
2022/05/07 13:07:25;;;;;;;2.85;0.80;;;;;;;;;;4981546;28;20039;-81
2022/05/07 13:09:51;;;;;;;8.48;1.02;;;;;;;;;;4987371;28;20050;-80
2022/05/07 13:12:17;;;;;;;1.00;0.68;;;;;;;;;;4972250;28;20135;-80
2022/05/07 13:14:43;;;;;;;1.15;0.90;;;;;;;;;;4984108;28;20077;-79
2022/05/07 13:17:09;;;;;;;0.98;0.80;;;;;;;;;;4976749;28;20570;-79
2022/05/07 13:19:35;;;;;;;1.08;0.98;;;22.10;63.30;;;;;;4975997;28;20109;-80
2022/05/07 13:22:01;;;;;;;1.67;0.90;;;;;;;;;;4977043;28;20408;-80
2022/05/07 13:24:27;;;;;;;1.15;0.98;;;;;;;;;;4984208;28;20045;-79
2022/05/07 13:26:53;;;;;;;2.90;0.98;;;;;;;;;;4988258;28;20034;-80
2022/05/07 13:29:19;;;;;;;1.73;1.17;;;;;;;;;;4987301;28;20030;-79
2022/05/07 13:31:45;;;;;;;1.00;0.85;;;;;;;;;;4983156;28;20078;-80
2022/05/07 13:34:11;;;;;;;1.00;0.70;;;;;;;;;;4979571;28;20027;-79
2022/05/07 13:36:37;;;;;;;0.98;0.65;;;;;;;;;;4978321;28;20549;-80
2022/05/07 13:39:04;;;;;;;1.13;0.75;;;;;;;;;;4974969;28;20074;-79
2022/05/07 13:41:30;;;;;;;0.75;0.68;;;;;;;;;;4979340;28;20027;-79
2022/05/07 13:43:56;;;;;;;1.75;1.27;;;;;;;;;;4978215;28;20042;-81
2022/05/07 13:46:23;;;;;;;1.23;0.80;;;;;;;;;;4985037;28;20034;-79
2022/05/07 13:48:49;;;;;;;1.27;0.57;;;;;;;;;;4974847;28;20035;-80
2022/05/07 13:51:16;;;;;;;6.18;1.17;;;;;;;;;;4991053;28;20429;-80
2022/05/07 13:53:42;;;;;;;3.78;0.70;;;;;;;;;;4987460;28;20419;-80
2022/05/07 13:56:08;;;;;;;0.85;0.68;;;;;;;;;;4986071;28;20038;-79
2022/05/07 13:58:34;;;;;;;1.35;0.82;;;;;;;;;;4986218;28;20030;-80
2022/05/07 14:01:00;;;;;;;1.80;1.00;;;;;;;;;;4985847;28;20031;-80
2022/05/07 14:03:26;;;;;;;1.33;0.73;;;;;;;;;;4989179;28;20118;-80
2022/05/07 14:05:52;;;;;;;0.50;0.50;;;;;;;;;;4972513;28;20062;-79
2022/05/07 14:08:18;;;;;;;3.05;0.93;;;;;;;;;;4979470;28;20665;-80
2022/05/07 14:10:44;;;;;;;1.55;0.73;;;;;;;;;;4979326;28;20066;-80
2022/05/07 14:13:10;;;;;;;0.88;0.75;;;;;;;;;;4977349;28;20126;-80
2022/05/07 14:15:36;;;;;;;1.30;0.88;;;;;;;;;;4988199;28;20038;-80
2022/05/07 14:18:02;;;;;;;3.03;0.70;;;;;;;;;;4988728;28;20026;-80
2022/05/07 14:20:28;;;;;;;5.18;0.93;;;;;;;;;;4988883;28;20026;-80
2022/05/07 14:22:54;;;;;;;0.63;0.50;;;;;;;;;;4980780;28;20135;-80
2022/05/07 14:25:22;;;;;;;1.63;1.00;;;;;;;;;;4984791;28;20129;-79
2022/05/07 14:27:48;;;;;;;2.35;1.35;;;;;;;;;;4986634;28;20489;-80
2022/05/07 14:30:14;;;;;;;1.25;0.93;;;;;;;;;;4989492;28;20466;-83
2022/05/07 14:32:40;;;;;;;1.75;0.75;;;;;;;;;;4990894;28;20089;-80
2022/05/07 14:35:10;;;;;;;1.00;0.50;;;;;;;;;;4989604;28;20034;-80
2022/05/07 14:37:39;;;;;;;0.82;0.70;;;;;;;;;;4985961;28;20853;-94
2022/05/07 14:42:50;;;;;;;2.63;0.88;;;;;;;;;;4985149;28;20415;-89
2022/05/07 14:45:17;;;;;;;1.35;1.00;;;;;;;;;;4974293;28;20019;-80
2022/05/07 14:47:43;;;;;;;2.38;1.02;;;;;;;;;;4978402;28;20038;-80
2022/05/07 14:50:09;;;;;;;3.50;1.52;;;;;;;;;;4974397;28;20543;-80
2022/05/07 14:52:35;;;;;;;3.17;0.93;;;;;;;;;;4977210;28;20034;-79
2022/05/07 14:55:01;;;;;;;1.15;0.90;;;;;;;;;;4978203;28;20081;-79
2022/05/07 14:57:27;;;;;;;1.48;0.93;;;;;;;;;;4987224;28;20027;-79
2022/05/07 14:59:53;;;;;;;1.02;0.93;;;;;;;;;;4977875;28;20037;-81
2022/05/07 15:02:19;;;;;;;0.90;0.57;;;;;;;;;;4985464;28;20081;-80
2022/05/07 15:04:45;;;;;;;2.42;0.95;;;;;;;;;;4986989;28;20038;-80
2022/05/07 15:07:11;;;;;;;1.15;0.73;;;;;;;;;;4980468;28;20031;-81
2022/05/07 15:12:23;;;;;;;1.42;0.80;;;;;;;;;;4974013;28;20045;-81
2022/05/07 15:14:49;;;;;;;0.55;0.55;;;;;;;;;;4985683;28;20096;-80